KDAG/DAG METAR and TAF weather

Enter ICAO airport designator
Station Type Date Time Source
KDAG METAR 2022/05/26 05:50 UTC NOAA

KDAG 260550Z AUTO 29009KT 10SM CLR 29/M02 A2986 RMK AO2 SLP079 T02941017 10389 20294 51025


Station Type Date Time Source
KDAG Decoded METAR 2022/05/26 05:50 UTC NOAA

BARSTOW-DAGGETT AIRPORT, CA, United States (KDAG) 34-51N 116-47W 587M
May 26, 2022 - 01:50 AM EDT / 2022.05.26 0550 UTC
Wind: from the WNW (290 degrees) at 10 MPH (9 KT):0
Visibility: 10 mile(s):0
Sky conditions: clear
Temperature: 84.9 F (29.4 C)
Dew Point: 28.9 F (-1.7 C)
Relative Humidity: 13%
Pressure (altimeter): 29.86 in. Hg (1011 hPa)
Pressure tendency: 0.07 inches (2.5 hPa) higher than three hours ago
ob: KDAG 260550Z AUTO 29009KT 10SM CLR 29/M02 A2986 RMK AO2 SLP079 T02941017 10389 20294 51025
cycle: 6

Station Type Date Time Source
KDAG TAF 2022/05/26 06:22 UTC NOAA

TAF KDAG 260520Z 2606/2706 24012KT P6SM FEW250
FM260900 28009KT P6SM FEW250
FM262200 25018G28KT P6SM FEW250

Example: see airport list